Terminal Aerodrome Forecast
Issued by NWS Grand Junction, CO

Home | Current Version | Previous Version | Text Only | Print | Product List | Glossary On
Versions: 1 2 3 4 5 6 7 8 9 10 11 12 13 14 15 16 17 18 19 20 21 22 23 24 25 26 27 28 29 30 31 32 33 34 35 36 37 38 39 40 41 42
873
FTUS45 KGJT 231131
TAFGJT
TAF
KGJT 231131Z 2312/2412 12010KT P6SM BKN150
     FM231700 19004KT P6SM SCT150
     FM232000 28008KT P6SM SCT110
     FM240200 09005KT P6SM FEW110
     FM240600 10008KT P6SM SCT250=

USA.gov is the U.S. government's official web portal to all federal, state and local government web resources and services.